sensor_id;sensor_type;location;lat;lon;timestamp;P1;durP1;ratioP1;P2;durP2;ratioP2
1593;SDS011;790;47.000;16.084;2024-02-14T00:03:52;1.70;;;1.50;;
1593;SDS011;790;47.000;16.084;2024-02-14T00:10:15;1.10;;;1.07;;
1593;SDS011;790;47.000;16.084;2024-02-14T00:16:38;1.47;;;1.20;;
1593;SDS011;790;47.000;16.084;2024-02-14T00:23:01;2.07;;;1.43;;
1593;SDS011;790;47.000;16.084;2024-02-14T00:34:09;2.30;;;1.20;;
1593;SDS011;790;47.000;16.084;2024-02-14T00:40:32;1.20;;;1.20;;
1593;SDS011;790;47.000;16.084;2024-02-14T00:46:56;3.70;;;3.40;;
1593;SDS011;790;47.000;16.084;2024-02-14T00:53:21;2.17;;;2.00;;
1593;SDS011;790;47.000;16.084;2024-02-14T00:59:43;2.50;;;2.30;;
1593;SDS011;790;47.000;16.084;2024-02-14T01:06:06;2.17;;;1.80;;
1593;SDS011;790;47.000;16.084;2024-02-14T01:12:30;1.23;;;1.23;;
1593;SDS011;790;47.000;16.084;2024-02-14T01:18:53;1.57;;;1.57;;
1593;SDS011;790;47.000;16.084;2024-02-14T01:25:16;2.80;;;1.43;;
1593;SDS011;790;47.000;16.084;2024-02-14T01:36:23;1.40;;;1.30;;
1593;SDS011;790;47.000;16.084;2024-02-14T01:42:46;2.20;;;1.20;;
1593;SDS011;790;47.000;16.084;2024-02-14T01:49:08;1.07;;;1.07;;
1593;SDS011;790;47.000;16.084;2024-02-14T01:55:33;1.33;;;1.33;;
1593;SDS011;790;47.000;16.084;2024-02-14T02:01:56;2.43;;;1.37;;
1593;SDS011;790;47.000;16.084;2024-02-14T02:08:19;1.70;;;1.60;;
1593;SDS011;790;47.000;16.084;2024-02-14T02:14:42;1.73;;;1.50;;
1593;SDS011;790;47.000;16.084;2024-02-14T02:21:05;1.40;;;1.40;;
1593;SDS011;790;47.000;16.084;2024-02-14T02:27:28;1.90;;;1.70;;
1593;SDS011;790;47.000;16.084;2024-02-14T02:38:35;1.63;;;1.53;;
1593;SDS011;790;47.000;16.084;2024-02-14T02:45:01;1.73;;;1.63;;
1593;SDS011;790;47.000;16.084;2024-02-14T02:51:25;2.97;;;1.47;;
1593;SDS011;790;47.000;16.084;2024-02-14T02:57:48;2.60;;;1.87;;
1593;SDS011;790;47.000;16.084;2024-02-14T03:04:13;1.60;;;1.50;;
1593;SDS011;790;47.000;16.084;2024-02-14T03:10:36;2.27;;;1.50;;
1593;SDS011;790;47.000;16.084;2024-02-14T03:17:00;1.60;;;1.50;;
1593;SDS011;790;47.000;16.084;2024-02-14T03:23:25;1.77;;;1.67;;
1593;SDS011;790;47.000;16.084;2024-02-14T03:29:48;2.10;;;1.90;;
1593;SDS011;790;47.000;16.084;2024-02-14T03:41:07;2.07;;;1.40;;
1593;SDS011;790;47.000;16.084;2024-02-14T03:47:29;2.00;;;1.90;;
1593;SDS011;790;47.000;16.084;2024-02-14T03:53:51;2.40;;;1.70;;
1593;SDS011;790;47.000;16.084;2024-02-14T04:00:15;1.50;;;1.40;;
1593;SDS011;790;47.000;16.084;2024-02-14T04:06:37;1.80;;;1.70;;
1593;SDS011;790;47.000;16.084;2024-02-14T04:13:00;1.60;;;1.50;;
1593;SDS011;790;47.000;16.084;2024-02-14T04:19:24;3.07;;;1.70;;
1593;SDS011;790;47.000;16.084;2024-02-14T04:25:46;3.60;;;1.83;;
1593;SDS011;790;47.000;16.084;2024-02-14T04:32:09;1.80;;;1.70;;
1593;SDS011;790;47.000;16.084;2024-02-14T04:43:18;1.90;;;1.70;;
1593;SDS011;790;47.000;16.084;2024-02-14T04:49:40;2.80;;;1.90;;
1593;SDS011;790;47.000;16.084;2024-02-14T04:56:02;2.00;;;1.90;;
1593;SDS011;790;47.000;16.084;2024-02-14T05:02:27;2.20;;;2.00;;
1593;SDS011;790;47.000;16.084;2024-02-14T05:08:49;1.73;;;1.63;;
1593;SDS011;790;47.000;16.084;2024-02-14T05:15:13;1.83;;;1.70;;
1593;SDS011;790;47.000;16.084;2024-02-14T05:21:39;2.30;;;1.67;;
1593;SDS011;790;47.000;16.084;2024-02-14T05:28:01;1.53;;;1.43;;
1593;SDS011;790;47.000;16.084;2024-02-14T05:34:23;2.40;;;2.20;;
1593;SDS011;790;47.000;16.084;2024-02-14T05:45:32;1.97;;;1.87;;
1593;SDS011;790;47.000;16.084;2024-02-14T05:51:54;1.97;;;1.87;;
1593;SDS011;790;47.000;16.084;2024-02-14T05:58:17;1.77;;;1.67;;
1593;SDS011;790;47.000;16.084;2024-02-14T06:04:41;1.90;;;1.80;;
1593;SDS011;790;47.000;16.084;2024-02-14T06:11:04;1.80;;;1.70;;
1593;SDS011;790;47.000;16.084;2024-02-14T06:17:27;2.53;;;1.57;;
1593;SDS011;790;47.000;16.084;2024-02-14T06:23:51;2.00;;;1.90;;
1593;SDS011;790;47.000;16.084;2024-02-14T06:30:13;2.80;;;1.97;;
1593;SDS011;790;47.000;16.084;2024-02-14T06:36:36;4.33;;;1.93;;
1593;SDS011;790;47.000;16.084;2024-02-14T06:47:44;3.53;;;3.20;;
1593;SDS011;790;47.000;16.084;2024-02-14T06:54:06;6.30;;;5.53;;
1593;SDS011;790;47.000;16.084;2024-02-14T07:00:28;13.93;;;11.13;;
1593;SDS011;790;47.000;16.084;2024-02-14T07:06:52;19.30;;;14.23;;
1593;SDS011;790;47.000;16.084;2024-02-14T07:13:14;12.00;;;9.50;;
1593;SDS011;790;47.000;16.084;2024-02-14T07:19:37;8.13;;;6.40;;
1593;SDS011;790;47.000;16.084;2024-02-14T07:26:01;6.43;;;5.13;;
1593;SDS011;790;47.000;16.084;2024-02-14T07:32:34;6.50;;;4.40;;
1593;SDS011;790;47.000;16.084;2024-02-14T07:38:59;6.07;;;5.03;;
1593;SDS011;790;47.000;16.084;2024-02-14T07:50:17;4.63;;;3.93;;
1593;SDS011;790;47.000;16.084;2024-02-14T07:56:39;4.93;;;4.13;;
1593;SDS011;790;47.000;16.084;2024-02-14T08:03:01;4.63;;;3.40;;
1593;SDS011;790;47.000;16.084;2024-02-14T08:09:27;5.17;;;3.80;;
1593;SDS011;790;47.000;16.084;2024-02-14T08:15:49;5.37;;;4.73;;
1593;SDS011;790;47.000;16.084;2024-02-14T08:22:12;4.47;;;3.97;;
1593;SDS011;790;47.000;16.084;2024-02-14T08:28:37;5.77;;;4.27;;
1593;SDS011;790;47.000;16.084;2024-02-14T08:34:59;6.10;;;5.20;;
1593;SDS011;790;47.000;16.084;2024-02-14T08:41:21;7.57;;;6.27;;
1593;SDS011;790;47.000;16.084;2024-02-14T08:52:40;6.60;;;5.63;;
1593;SDS011;790;47.000;16.084;2024-02-14T08:59:02;5.97;;;5.37;;
1593;SDS011;790;47.000;16.084;2024-02-14T09:05:26;5.83;;;5.33;;
1593;SDS011;790;47.000;16.084;2024-02-14T09:11:51;6.57;;;4.47;;
1593;SDS011;790;47.000;16.084;2024-02-14T09:18:14;4.47;;;3.67;;
1593;SDS011;790;47.000;16.084;2024-02-14T09:24:38;3.43;;;3.00;;
1593;SDS011;790;47.000;16.084;2024-02-14T09:31:02;2.70;;;2.50;;
1593;SDS011;790;47.000;16.084;2024-02-14T09:37:25;1.80;;;1.70;;
1593;SDS011;790;47.000;16.084;2024-02-14T09:43:47;2.70;;;2.00;;
1593;SDS011;790;47.000;16.084;2024-02-14T09:55:06;1.60;;;1.50;;
1593;SDS011;790;47.000;16.084;2024-02-14T10:01:31;1.67;;;1.57;;
1593;SDS011;790;47.000;16.084;2024-02-14T10:07:54;0.93;;;0.93;;
1593;SDS011;790;47.000;16.084;2024-02-14T10:14:20;1.23;;;1.20;;
1593;SDS011;790;47.000;16.084;2024-02-14T10:20:52;3.30;;;1.30;;
1593;SDS011;790;47.000;16.084;2024-02-14T10:27:15;2.20;;;2.00;;
1593;SDS011;790;47.000;16.084;2024-02-14T10:33:40;2.90;;;1.40;;
1593;SDS011;790;47.000;16.084;2024-02-14T10:40:04;1.63;;;1.10;;
1593;SDS011;790;47.000;16.084;2024-02-14T10:46:28;3.20;;;1.57;;
1593;SDS011;790;47.000;16.084;2024-02-14T10:57:50;1.50;;;1.40;;
1593;SDS011;790;47.000;16.084;2024-02-14T11:04:12;1.50;;;1.40;;
1593;SDS011;790;47.000;16.084;2024-02-14T11:10:37;1.43;;;1.33;;
1593;SDS011;790;47.000;16.084;2024-02-14T11:17:01;2.10;;;1.37;;
1593;SDS011;790;47.000;16.084;2024-02-14T11:23:23;1.73;;;1.00;;
1593;SDS011;790;47.000;16.084;2024-02-14T11:29:53;3.90;;;1.87;;
1593;SDS011;790;47.000;16.084;2024-02-14T11:36:16;1.60;;;1.50;;
1593;SDS011;790;47.000;16.084;2024-02-14T11:42:39;1.47;;;1.37;;
1593;SDS011;790;47.000;16.084;2024-02-14T11:49:03;4.43;;;1.70;;
1593;SDS011;790;47.000;16.084;2024-02-14T12:00:23;1.60;;;1.50;;
1593;SDS011;790;47.000;16.084;2024-02-14T12:07:05;2.30;;;1.70;;
1593;SDS011;790;47.000;16.084;2024-02-14T12:13:30;2.07;;;1.50;;
1593;SDS011;790;47.000;16.084;2024-02-14T12:20:04;2.20;;;2.10;;
1593;SDS011;790;47.000;16.084;2024-02-14T12:26:29;4.10;;;3.70;;
1593;SDS011;790;47.000;16.084;2024-02-14T12:32:58;1.63;;;1.53;;
1593;SDS011;790;47.000;16.084;2024-02-14T12:39:23;1.90;;;1.80;;
1593;SDS011;790;47.000;16.084;2024-02-14T12:45:46;1.73;;;1.30;;
1593;SDS011;790;47.000;16.084;2024-02-14T12:52:08;1.00;;;1.00;;
1593;SDS011;790;47.000;16.084;2024-02-14T13:03:17;1.90;;;1.80;;
1593;SDS011;790;47.000;16.084;2024-02-14T13:09:39;1.43;;;1.30;;
1593;SDS011;790;47.000;16.084;2024-02-14T13:16:02;1.10;;;1.00;;
1593;SDS011;790;47.000;16.084;2024-02-14T13:22:28;2.27;;;2.17;;
1593;SDS011;790;47.000;16.084;2024-02-14T13:28:52;6.97;;;5.53;;
1593;SDS011;790;47.000;16.084;2024-02-14T13:35:15;19.80;;;18.20;;
1593;SDS011;790;47.000;16.084;2024-02-14T13:41:40;6.90;;;6.40;;
1593;SDS011;790;47.000;16.084;2024-02-14T13:48:05;1.73;;;1.63;;
1593;SDS011;790;47.000;16.084;2024-02-14T13:54:28;6.00;;;5.50;;
1593;SDS011;790;47.000;16.084;2024-02-14T14:05:36;4.10;;;3.83;;
1593;SDS011;790;47.000;16.084;2024-02-14T14:11:58;2.43;;;2.30;;
1593;SDS011;790;47.000;16.084;2024-02-14T14:18:21;4.33;;;2.17;;
1593;SDS011;790;47.000;16.084;2024-02-14T14:24:56;7.10;;;6.50;;
1593;SDS011;790;47.000;16.084;2024-02-14T14:31:17;6.77;;;6.23;;
1593;SDS011;790;47.000;16.084;2024-02-14T14:37:39;4.00;;;3.70;;
1593;SDS011;790;47.000;16.084;2024-02-14T14:44:03;1.70;;;1.50;;
1593;SDS011;790;47.000;16.084;2024-02-14T14:50:25;2.20;;;1.90;;
1593;SDS011;790;47.000;16.084;2024-02-14T14:56:52;2.67;;;2.00;;
1593;SDS011;790;47.000;16.084;2024-02-14T15:08:11;2.83;;;2.50;;
1593;SDS011;790;47.000;16.084;2024-02-14T15:14:33;4.20;;;3.00;;
1593;SDS011;790;47.000;16.084;2024-02-14T15:20:56;2.67;;;2.47;;
1593;SDS011;790;47.000;16.084;2024-02-14T15:27:20;2.80;;;2.40;;
1593;SDS011;790;47.000;16.084;2024-02-14T15:33:43;1.83;;;1.73;;
1593;SDS011;790;47.000;16.084;2024-02-14T15:40:06;2.53;;;2.33;;
1593;SDS011;790;47.000;16.084;2024-02-14T15:46:30;2.37;;;1.97;;
1593;SDS011;790;47.000;16.084;2024-02-14T15:52:53;2.07;;;1.87;;
1593;SDS011;790;47.000;16.084;2024-02-14T15:59:15;2.33;;;1.67;;
1593;SDS011;790;47.000;16.084;2024-02-14T16:10:33;4.03;;;2.07;;
1593;SDS011;790;47.000;16.084;2024-02-14T16:16:55;5.33;;;2.20;;
1593;SDS011;790;47.000;16.084;2024-02-14T16:23:17;2.60;;;2.40;;
1593;SDS011;790;47.000;16.084;2024-02-14T16:29:41;4.10;;;2.20;;
1593;SDS011;790;47.000;16.084;2024-02-14T16:36:03;2.33;;;2.13;;
1593;SDS011;790;47.000;16.084;2024-02-14T16:42:26;3.23;;;2.33;;
1593;SDS011;790;47.000;16.084;2024-02-14T16:48:50;2.40;;;2.20;;
1593;SDS011;790;47.000;16.084;2024-02-14T16:55:12;2.30;;;2.03;;
1593;SDS011;790;47.000;16.084;2024-02-14T17:01:34;1.97;;;1.87;;
1593;SDS011;790;47.000;16.084;2024-02-14T17:12:42;2.97;;;2.50;;
1593;SDS011;790;47.000;16.084;2024-02-14T17:19:05;3.63;;;2.53;;
1593;SDS011;790;47.000;16.084;2024-02-14T17:25:27;3.10;;;2.20;;
1593;SDS011;790;47.000;16.084;2024-02-14T17:31:52;4.93;;;4.40;;
1593;SDS011;790;47.000;16.084;2024-02-14T17:38:14;2.50;;;2.30;;
1593;SDS011;790;47.000;16.084;2024-02-14T17:44:36;4.20;;;3.00;;
1593;SDS011;790;47.000;16.084;2024-02-14T17:51:00;2.50;;;2.27;;
1593;SDS011;790;47.000;16.084;2024-02-14T17:57:22;4.00;;;2.40;;
1593;SDS011;790;47.000;16.084;2024-02-14T18:03:44;3.90;;;2.50;;
1593;SDS011;790;47.000;16.084;2024-02-14T18:14:52;2.63;;;2.27;;
1593;SDS011;790;47.000;16.084;2024-02-14T18:21:15;3.53;;;2.30;;
1593;SDS011;790;47.000;16.084;2024-02-14T18:27:37;3.23;;;2.43;;
1593;SDS011;790;47.000;16.084;2024-02-14T18:34:02;3.17;;;2.40;;
1593;SDS011;790;47.000;16.084;2024-02-14T18:40:25;2.67;;;2.27;;
1593;SDS011;790;47.000;16.084;2024-02-14T18:46:47;3.47;;;2.47;;
1593;SDS011;790;47.000;16.084;2024-02-14T18:53:13;3.10;;;2.50;;
1593;SDS011;790;47.000;16.084;2024-02-14T18:59:35;6.57;;;4.10;;
1593;SDS011;790;47.000;16.084;2024-02-14T19:05:58;7.97;;;3.80;;
1593;SDS011;790;47.000;16.084;2024-02-14T19:17:06;5.27;;;4.10;;
1593;SDS011;790;47.000;16.084;2024-02-14T19:23:29;3.60;;;3.30;;
1593;SDS011;790;47.000;16.084;2024-02-14T19:29:55;3.30;;;3.00;;
1593;SDS011;790;47.000;16.084;2024-02-14T19:36:20;3.60;;;3.10;;
1593;SDS011;790;47.000;16.084;2024-02-14T19:42:42;3.80;;;3.20;;
1593;SDS011;790;47.000;16.084;2024-02-14T19:49:04;3.20;;;2.90;;
1593;SDS011;790;47.000;16.084;2024-02-14T19:55:52;3.20;;;2.90;;
1593;SDS011;790;47.000;16.084;2024-02-14T20:02:25;3.67;;;3.30;;
1593;SDS011;790;47.000;16.084;2024-02-14T20:08:49;3.63;;;3.30;;
1593;SDS011;790;47.000;16.084;2024-02-14T20:20:08;3.97;;;3.30;;
1593;SDS011;790;47.000;16.084;2024-02-14T20:26:33;5.17;;;3.30;;
1593;SDS011;790;47.000;16.084;2024-02-14T20:32:56;4.13;;;3.30;;
1593;SDS011;790;47.000;16.084;2024-02-14T20:39:20;3.67;;;3.10;;
1593;SDS011;790;47.000;16.084;2024-02-14T20:45:42;6.37;;;3.00;;
1593;SDS011;790;47.000;16.084;2024-02-14T20:52:05;4.67;;;3.73;;
1593;SDS011;790;47.000;16.084;2024-02-14T20:58:29;4.90;;;3.87;;
1593;SDS011;790;47.000;16.084;2024-02-14T21:04:52;4.67;;;4.03;;
1593;SDS011;790;47.000;16.084;2024-02-14T21:11:14;4.00;;;3.70;;
1593;SDS011;790;47.000;16.084;2024-02-14T21:22:32;3.67;;;3.20;;
1593;SDS011;790;47.000;16.084;2024-02-14T21:28:55;4.90;;;4.10;;
1593;SDS011;790;47.000;16.084;2024-02-14T21:35:18;4.70;;;4.30;;
1593;SDS011;790;47.000;16.084;2024-02-14T21:41:43;4.90;;;4.30;;
1593;SDS011;790;47.000;16.084;2024-02-14T21:48:25;4.23;;;3.90;;
1593;SDS011;790;47.000;16.084;2024-02-14T21:54:47;5.50;;;5.00;;
1593;SDS011;790;47.000;16.084;2024-02-14T22:01:11;5.83;;;4.50;;
1593;SDS011;790;47.000;16.084;2024-02-14T22:07:33;4.53;;;4.07;;
1593;SDS011;790;47.000;16.084;2024-02-14T22:13:57;5.13;;;4.37;;
1593;SDS011;790;47.000;16.084;2024-02-14T22:24:56;4.30;;;3.90;;
1593;SDS011;790;47.000;16.084;2024-02-14T22:31:18;5.37;;;4.33;;
1593;SDS011;790;47.000;16.084;2024-02-14T22:37:42;5.40;;;4.27;;
1593;SDS011;790;47.000;16.084;2024-02-14T22:44:06;4.37;;;3.97;;
1593;SDS011;790;47.000;16.084;2024-02-14T22:50:28;6.40;;;4.30;;
1593;SDS011;790;47.000;16.084;2024-02-14T22:56:51;6.23;;;4.10;;
1593;SDS011;790;47.000;16.084;2024-02-14T23:03:16;5.00;;;3.60;;
1593;SDS011;790;47.000;16.084;2024-02-14T23:09:38;4.87;;;4.40;;
1593;SDS011;790;47.000;16.084;2024-02-14T23:16:01;4.50;;;4.10;;
1593;SDS011;790;47.000;16.084;2024-02-14T23:27:00;5.10;;;4.17;;
1593;SDS011;790;47.000;16.084;2024-02-14T23:33:22;4.50;;;4.10;;
1593;SDS011;790;47.000;16.084;2024-02-14T23:39:44;4.80;;;3.90;;
1593;SDS011;790;47.000;16.084;2024-02-14T23:46:08;5.60;;;4.60;;
1593;SDS011;790;47.000;16.084;2024-02-14T23:52:31;4.40;;;4.00;;
1593;SDS011;790;47.000;16.084;2024-02-14T23:58:53;6.33;;;4.63;;
